sensor_id;sensor_type;location;lat;lon;timestamp;temperature;humidity
68385;DHT22;55336;43.062;25.626;2023-04-24T00:00:03;7.10;99.90
68385;DHT22;55336;43.062;25.626;2023-04-24T00:02:32;7.10;99.90
68385;DHT22;55336;43.062;25.626;2023-04-24T00:04:58;7.10;99.90
68385;DHT22;55336;43.062;25.626;2023-04-24T00:07:31;7.20;99.90
68385;DHT22;55336;43.062;25.626;2023-04-24T00:09:57;7.10;99.90
68385;DHT22;55336;43.062;25.626;2023-04-24T00:12:23;7.00;99.90
68385;DHT22;55336;43.062;25.626;2023-04-24T00:14:49;7.00;99.90
68385;DHT22;55336;43.062;25.626;2023-04-24T00:17:14;7.00;99.90
68385;DHT22;55336;43.062;25.626;2023-04-24T00:19:40;6.90;99.90
68385;DHT22;55336;43.062;25.626;2023-04-24T00:22:06;6.90;99.90
68385;DHT22;55336;43.062;25.626;2023-04-24T00:24:32;6.90;99.90
68385;DHT22;55336;43.062;25.626;2023-04-24T00:26:57;6.80;99.90
68385;DHT22;55336;43.062;25.626;2023-04-24T00:29:23;6.80;99.90
68385;DHT22;55336;43.062;25.626;2023-04-24T00:31:49;6.70;99.90
68385;DHT22;55336;43.062;25.626;2023-04-24T00:34:16;6.80;99.90
68385;DHT22;55336;43.062;25.626;2023-04-24T00:36:41;6.80;99.90
68385;DHT22;55336;43.062;25.626;2023-04-24T00:39:07;6.70;99.90
68385;DHT22;55336;43.062;25.626;2023-04-24T00:41:34;6.70;99.90
68385;DHT22;55336;43.062;25.626;2023-04-24T00:43:59;6.60;99.90
68385;DHT22;55336;43.062;25.626;2023-04-24T00:46:25;6.50;99.90
68385;DHT22;55336;43.062;25.626;2023-04-24T00:48:51;6.50;99.90
68385;DHT22;55336;43.062;25.626;2023-04-24T00:51:17;6.40;99.90
68385;DHT22;55336;43.062;25.626;2023-04-24T00:53:43;6.40;99.90
68385;DHT22;55336;43.062;25.626;2023-04-24T00:56:09;6.30;99.90
68385;DHT22;55336;43.062;25.626;2023-04-24T00:58:35;6.20;99.90
68385;DHT22;55336;43.062;25.626;2023-04-24T01:01:01;6.20;99.90
68385;DHT22;55336;43.062;25.626;2023-04-24T01:03:31;6.10;99.90
68385;DHT22;55336;43.062;25.626;2023-04-24T01:05:59;6.00;99.90
68385;DHT22;55336;43.062;25.626;2023-04-24T01:08:26;6.00;99.90
68385;DHT22;55336;43.062;25.626;2023-04-24T01:10:52;5.90;99.90
68385;DHT22;55336;43.062;25.626;2023-04-24T01:13:18;5.80;99.90
68385;DHT22;55336;43.062;25.626;2023-04-24T01:15:44;5.80;99.90
68385;DHT22;55336;43.062;25.626;2023-04-24T01:18:10;5.70;99.90
68385;DHT22;55336;43.062;25.626;2023-04-24T01:20:36;5.70;99.90
68385;DHT22;55336;43.062;25.626;2023-04-24T01:23:05;5.60;99.90
68385;DHT22;55336;43.062;25.626;2023-04-24T01:25:31;6.20;99.90
68385;DHT22;55336;43.062;25.626;2023-04-24T01:27:57;5.50;99.90
68385;DHT22;55336;43.062;25.626;2023-04-24T01:30:24;5.50;99.90
68385;DHT22;55336;43.062;25.626;2023-04-24T01:32:50;5.50;99.90
68385;DHT22;55336;43.062;25.626;2023-04-24T01:35:17;5.50;99.90
68385;DHT22;55336;43.062;25.626;2023-04-24T01:37:43;5.50;99.90
68385;DHT22;55336;43.062;25.626;2023-04-24T01:40:09;5.40;99.90
68385;DHT22;55336;43.062;25.626;2023-04-24T01:42:34;5.40;99.90
68385;DHT22;55336;43.062;25.626;2023-04-24T01:45:00;5.40;99.90
68385;DHT22;55336;43.062;25.626;2023-04-24T01:47:27;5.30;99.90
68385;DHT22;55336;43.062;25.626;2023-04-24T01:49:53;5.30;99.90
68385;DHT22;55336;43.062;25.626;2023-04-24T01:52:19;5.30;99.90
68385;DHT22;55336;43.062;25.626;2023-04-24T01:54:45;5.30;99.90
68385;DHT22;55336;43.062;25.626;2023-04-24T01:57:10;5.30;99.90
68385;DHT22;55336;43.062;25.626;2023-04-24T01:59:36;5.30;99.90
68385;DHT22;55336;43.062;25.626;2023-04-24T02:02:02;5.20;99.90
68385;DHT22;55336;43.062;25.626;2023-04-24T02:04:28;5.30;99.90
68385;DHT22;55336;43.062;25.626;2023-04-24T02:06:54;5.30;99.90
68385;DHT22;55336;43.062;25.626;2023-04-24T02:09:20;5.20;99.90
68385;DHT22;55336;43.062;25.626;2023-04-24T02:11:46;5.30;99.90
68385;DHT22;55336;43.062;25.626;2023-04-24T02:14:11;5.30;99.90
68385;DHT22;55336;43.062;25.626;2023-04-24T02:16:37;5.40;99.90
68385;DHT22;55336;43.062;25.626;2023-04-24T02:19:03;5.40;99.90
68385;DHT22;55336;43.062;25.626;2023-04-24T02:21:29;5.50;99.90
68385;DHT22;55336;43.062;25.626;2023-04-24T02:23:56;5.50;99.90
68385;DHT22;55336;43.062;25.626;2023-04-24T02:26:22;5.50;99.90
68385;DHT22;55336;43.062;25.626;2023-04-24T02:28:47;5.50;99.90
68385;DHT22;55336;43.062;25.626;2023-04-24T02:31:13;5.50;99.90
68385;DHT22;55336;43.062;25.626;2023-04-24T02:33:39;5.50;99.90
68385;DHT22;55336;43.062;25.626;2023-04-24T02:36:05;5.50;99.90
68385;DHT22;55336;43.062;25.626;2023-04-24T02:38:31;5.40;99.90
68385;DHT22;55336;43.062;25.626;2023-04-24T02:40:56;5.40;99.90
68385;DHT22;55336;43.062;25.626;2023-04-24T02:43:22;5.40;99.90
68385;DHT22;55336;43.062;25.626;2023-04-24T02:45:48;5.30;99.90
68385;DHT22;55336;43.062;25.626;2023-04-24T02:48:14;5.30;99.90
68385;DHT22;55336;43.062;25.626;2023-04-24T02:50:40;5.20;99.90
68385;DHT22;55336;43.062;25.626;2023-04-24T02:53:06;5.20;99.90
68385;DHT22;55336;43.062;25.626;2023-04-24T02:55:32;5.10;99.90
68385;DHT22;55336;43.062;25.626;2023-04-24T02:57:57;5.10;99.90
68385;DHT22;55336;43.062;25.626;2023-04-24T03:00:23;5.00;99.90
68385;DHT22;55336;43.062;25.626;2023-04-24T03:02:49;5.00;99.90
68385;DHT22;55336;43.062;25.626;2023-04-24T03:05:15;4.90;99.90
68385;DHT22;55336;43.062;25.626;2023-04-24T03:07:41;4.90;99.90
68385;DHT22;55336;43.062;25.626;2023-04-24T03:10:07;4.80;99.90
68385;DHT22;55336;43.062;25.626;2023-04-24T03:12:33;4.80;99.90
68385;DHT22;55336;43.062;25.626;2023-04-24T03:14:59;4.70;99.90
68385;DHT22;55336;43.062;25.626;2023-04-24T03:17:25;4.70;99.90
68385;DHT22;55336;43.062;25.626;2023-04-24T03:19:51;4.70;99.90
68385;DHT22;55336;43.062;25.626;2023-04-24T03:22:16;4.70;99.90
68385;DHT22;55336;43.062;25.626;2023-04-24T03:24:42;4.70;99.90
68385;DHT22;55336;43.062;25.626;2023-04-24T03:27:08;4.70;99.90
68385;DHT22;55336;43.062;25.626;2023-04-24T03:29:33;4.70;99.90
68385;DHT22;55336;43.062;25.626;2023-04-24T03:31:59;4.70;99.90
68385;DHT22;55336;43.062;25.626;2023-04-24T03:34:25;4.70;99.90
68385;DHT22;55336;43.062;25.626;2023-04-24T03:36:51;4.60;99.90
68385;DHT22;55336;43.062;25.626;2023-04-24T03:39:18;4.60;99.90
68385;DHT22;55336;43.062;25.626;2023-04-24T03:41:43;4.60;99.90
68385;DHT22;55336;43.062;25.626;2023-04-24T03:44:09;4.60;99.90
68385;DHT22;55336;43.062;25.626;2023-04-24T03:46:35;4.60;99.90
68385;DHT22;55336;43.062;25.626;2023-04-24T03:49:00;4.60;99.90
68385;DHT22;55336;43.062;25.626;2023-04-24T03:51:26;4.60;99.90
68385;DHT22;55336;43.062;25.626;2023-04-24T03:53:53;4.70;99.90
68385;DHT22;55336;43.062;25.626;2023-04-24T03:56:19;4.70;99.90
68385;DHT22;55336;43.062;25.626;2023-04-24T03:58:46;4.80;99.90
68385;DHT22;55336;43.062;25.626;2023-04-24T04:01:11;4.80;99.90
68385;DHT22;55336;43.062;25.626;2023-04-24T04:03:37;4.90;99.90
68385;DHT22;55336;43.062;25.626;2023-04-24T04:06:03;4.90;99.90
68385;DHT22;55336;43.062;25.626;2023-04-24T04:08:29;5.00;99.90
68385;DHT22;55336;43.062;25.626;2023-04-24T04:10:57;5.10;99.90
68385;DHT22;55336;43.062;25.626;2023-04-24T04:13:22;5.40;99.90
68385;DHT22;55336;43.062;25.626;2023-04-24T04:15:48;5.50;99.90
68385;DHT22;55336;43.062;25.626;2023-04-24T04:18:14;5.70;99.90
68385;DHT22;55336;43.062;25.626;2023-04-24T04:20:41;5.90;99.90
68385;DHT22;55336;43.062;25.626;2023-04-24T04:23:06;5.90;99.90
68385;DHT22;55336;43.062;25.626;2023-04-24T04:25:32;6.20;99.90
68385;DHT22;55336;43.062;25.626;2023-04-24T04:27:58;6.50;99.90
68385;DHT22;55336;43.062;25.626;2023-04-24T04:30:25;6.60;99.90
68385;DHT22;55336;43.062;25.626;2023-04-24T04:32:51;6.80;99.90
68385;DHT22;55336;43.062;25.626;2023-04-24T04:35:17;7.00;99.90
68385;DHT22;55336;43.062;25.626;2023-04-24T04:37:43;7.30;99.90
68385;DHT22;55336;43.062;25.626;2023-04-24T04:40:10;7.50;99.90
68385;DHT22;55336;43.062;25.626;2023-04-24T04:42:39;7.70;99.90
68385;DHT22;55336;43.062;25.626;2023-04-24T04:45:08;7.90;99.90
68385;DHT22;55336;43.062;25.626;2023-04-24T04:47:34;8.10;99.90
68385;DHT22;55336;43.062;25.626;2023-04-24T04:50:00;8.20;99.90
68385;DHT22;55336;43.062;25.626;2023-04-24T04:52:26;8.50;99.90
68385;DHT22;55336;43.062;25.626;2023-04-24T04:54:52;8.80;99.90
68385;DHT22;55336;43.062;25.626;2023-04-24T04:57:17;9.00;99.90
68385;DHT22;55336;43.062;25.626;2023-04-24T04:59:43;9.20;99.90
68385;DHT22;55336;43.062;25.626;2023-04-24T05:02:09;9.40;99.90
68385;DHT22;55336;43.062;25.626;2023-04-24T05:04:35;9.60;99.90
68385;DHT22;55336;43.062;25.626;2023-04-24T05:07:00;9.80;99.90
68385;DHT22;55336;43.062;25.626;2023-04-24T05:09:26;10.10;99.90
68385;DHT22;55336;43.062;25.626;2023-04-24T05:11:54;10.60;99.90
68385;DHT22;55336;43.062;25.626;2023-04-24T05:14:20;11.10;99.90
68385;DHT22;55336;43.062;25.626;2023-04-24T05:16:46;11.50;99.90
68385;DHT22;55336;43.062;25.626;2023-04-24T05:19:12;11.80;99.90
68385;DHT22;55336;43.062;25.626;2023-04-24T05:21:39;12.30;99.90
68385;DHT22;55336;43.062;25.626;2023-04-24T05:24:05;12.90;99.90
68385;DHT22;55336;43.062;25.626;2023-04-24T05:26:31;13.20;99.90
68385;DHT22;55336;43.062;25.626;2023-04-24T05:28:57;13.70;99.90
68385;DHT22;55336;43.062;25.626;2023-04-24T05:31:22;14.30;99.90
68385;DHT22;55336;43.062;25.626;2023-04-24T05:33:48;14.50;99.90
68385;DHT22;55336;43.062;25.626;2023-04-24T05:36:14;15.20;99.90
68385;DHT22;55336;43.062;25.626;2023-04-24T05:38:40;15.80;99.90
68385;DHT22;55336;43.062;25.626;2023-04-24T05:41:06;16.40;99.90
68385;DHT22;55336;43.062;25.626;2023-04-24T05:43:32;16.80;99.90
68385;DHT22;55336;43.062;25.626;2023-04-24T05:45:58;17.10;99.90
68385;DHT22;55336;43.062;25.626;2023-04-24T05:48:23;17.40;99.90
68385;DHT22;55336;43.062;25.626;2023-04-24T05:50:51;18.00;94.50
68385;DHT22;55336;43.062;25.626;2023-04-24T05:53:18;18.10;88.90
68385;DHT22;55336;43.062;25.626;2023-04-24T05:55:43;18.10;84.30
68385;DHT22;55336;43.062;25.626;2023-04-24T05:58:09;18.20;84.10
68385;DHT22;55336;43.062;25.626;2023-04-24T06:00:35;18.30;82.60
68385;DHT22;55336;43.062;25.626;2023-04-24T06:03:01;18.80;79.20
68385;DHT22;55336;43.062;25.626;2023-04-24T06:05:29;19.00;80.00
68385;DHT22;55336;43.062;25.626;2023-04-24T06:07:55;18.50;77.30
68385;DHT22;55336;43.062;25.626;2023-04-24T06:10:21;18.70;76.30
68385;DHT22;55336;43.062;25.626;2023-04-24T06:12:46;18.30;75.50
68385;DHT22;55336;43.062;25.626;2023-04-24T06:15:12;17.90;74.40
68385;DHT22;55336;43.062;25.626;2023-04-24T06:17:38;17.70;80.00
68385;DHT22;55336;43.062;25.626;2023-04-24T06:20:04;18.20;80.90
68385;DHT22;55336;43.062;25.626;2023-04-24T06:22:31;19.20;76.30
68385;DHT22;55336;43.062;25.626;2023-04-24T06:24:57;19.80;69.80
68385;DHT22;55336;43.062;25.626;2023-04-24T06:27:22;20.30;63.90
68385;DHT22;55336;43.062;25.626;2023-04-24T06:29:48;20.90;62.60
68385;DHT22;55336;43.062;25.626;2023-04-24T06:32:23;20.80;63.30
68385;DHT22;55336;43.062;25.626;2023-04-24T06:34:50;21.40;58.30
68385;DHT22;55336;43.062;25.626;2023-04-24T06:37:16;21.70;58.00
68385;DHT22;55336;43.062;25.626;2023-04-24T06:39:41;21.50;59.40
68385;DHT22;55336;43.062;25.626;2023-04-24T06:42:07;20.50;59.00
68385;DHT22;55336;43.062;25.626;2023-04-24T06:44:35;21.20;56.10
68385;DHT22;55336;43.062;25.626;2023-04-24T06:47:12;21.90;59.90
68385;DHT22;55336;43.062;25.626;2023-04-24T06:49:41;22.20;55.20
68385;DHT22;55336;43.062;25.626;2023-04-24T06:52:06;22.50;51.90
68385;DHT22;55336;43.062;25.626;2023-04-24T06:54:32;21.10;53.00
68385;DHT22;55336;43.062;25.626;2023-04-24T06:56:58;21.50;55.10
68385;DHT22;55336;43.062;25.626;2023-04-24T06:59:24;21.70;53.60
68385;DHT22;55336;43.062;25.626;2023-04-24T07:01:50;22.00;52.00
68385;DHT22;55336;43.062;25.626;2023-04-24T07:04:16;22.20;53.00
68385;DHT22;55336;43.062;25.626;2023-04-24T07:06:44;22.70;55.60
68385;DHT22;55336;43.062;25.626;2023-04-24T07:09:11;22.40;52.50
68385;DHT22;55336;43.062;25.626;2023-04-24T07:11:36;23.00;51.20
68385;DHT22;55336;43.062;25.626;2023-04-24T07:14:04;23.10;49.50
68385;DHT22;55336;43.062;25.626;2023-04-24T07:16:30;23.30;50.60
68385;DHT22;55336;43.062;25.626;2023-04-24T07:18:55;24.20;45.60
68385;DHT22;55336;43.062;25.626;2023-04-24T07:21:21;24.40;44.40
68385;DHT22;55336;43.062;25.626;2023-04-24T07:23:47;24.80;45.10
68385;DHT22;55336;43.062;25.626;2023-04-24T07:26:12;25.50;44.10
68385;DHT22;55336;43.062;25.626;2023-04-24T07:28:40;25.70;43.50
68385;DHT22;55336;43.062;25.626;2023-04-24T07:31:06;24.50;41.90
68385;DHT22;55336;43.062;25.626;2023-04-24T07:33:32;23.70;45.10
68385;DHT22;55336;43.062;25.626;2023-04-24T07:35:58;23.00;46.00
68385;DHT22;55336;43.062;25.626;2023-04-24T07:38:24;22.60;45.90
68385;DHT22;55336;43.062;25.626;2023-04-24T07:40:51;22.50;49.30
68385;DHT22;55336;43.062;25.626;2023-04-24T07:43:17;22.30;48.40
68385;DHT22;55336;43.062;25.626;2023-04-24T07:45:42;22.50;47.50
68385;DHT22;55336;43.062;25.626;2023-04-24T07:48:08;22.50;47.80
68385;DHT22;55336;43.062;25.626;2023-04-24T07:50:34;22.60;49.60
68385;DHT22;55336;43.062;25.626;2023-04-24T07:53:01;22.80;45.70
68385;DHT22;55336;43.062;25.626;2023-04-24T07:55:27;23.00;45.40
68385;DHT22;55336;43.062;25.626;2023-04-24T07:57:52;23.20;44.70
68385;DHT22;55336;43.062;25.626;2023-04-24T08:00:18;22.80;44.90
68385;DHT22;55336;43.062;25.626;2023-04-24T08:02:44;22.70;46.50
68385;DHT22;55336;43.062;25.626;2023-04-24T08:05:10;22.40;46.60
68385;DHT22;55336;43.062;25.626;2023-04-24T08:07:35;22.10;46.80
68385;DHT22;55336;43.062;25.626;2023-04-24T08:10:01;22.00;46.70
68385;DHT22;55336;43.062;25.626;2023-04-24T08:12:30;22.00;47.50
68385;DHT22;55336;43.062;25.626;2023-04-24T08:14:56;21.90;48.90
68385;DHT22;55336;43.062;25.626;2023-04-24T08:17:21;22.10;48.70
68385;DHT22;55336;43.062;25.626;2023-04-24T08:19:47;22.40;47.60
68385;DHT22;55336;43.062;25.626;2023-04-24T08:22:14;22.90;46.70
68385;DHT22;55336;43.062;25.626;2023-04-24T08:24:40;23.20;43.80
68385;DHT22;55336;43.062;25.626;2023-04-24T08:27:06;23.20;44.50
68385;DHT22;55336;43.062;25.626;2023-04-24T08:29:32;23.10;45.60
68385;DHT22;55336;43.062;25.626;2023-04-24T08:31:57;22.90;46.50
68385;DHT22;55336;43.062;25.626;2023-04-24T08:34:23;22.80;45.40
68385;DHT22;55336;43.062;25.626;2023-04-24T08:36:49;22.70;46.00
68385;DHT22;55336;43.062;25.626;2023-04-24T08:39:15;22.30;46.70
68385;DHT22;55336;43.062;25.626;2023-04-24T08:41:42;22.30;47.10
68385;DHT22;55336;43.062;25.626;2023-04-24T08:44:11;22.30;47.70
68385;DHT22;55336;43.062;25.626;2023-04-24T08:46:38;22.10;47.60
68385;DHT22;55336;43.062;25.626;2023-04-24T08:49:04;21.90;49.60
68385;DHT22;55336;43.062;25.626;2023-04-24T08:51:31;22.00;48.90
68385;DHT22;55336;43.062;25.626;2023-04-24T08:53:57;21.80;50.40
68385;DHT22;55336;43.062;25.626;2023-04-24T08:56:22;21.70;50.20
68385;DHT22;55336;43.062;25.626;2023-04-24T08:58:52;21.80;52.10
68385;DHT22;55336;43.062;25.626;2023-04-24T09:01:18;21.80;51.60
68385;DHT22;55336;43.062;25.626;2023-04-24T09:03:45;21.50;53.50
68385;DHT22;55336;43.062;25.626;2023-04-24T09:06:11;21.50;53.20
68385;DHT22;55336;43.062;25.626;2023-04-24T09:08:37;21.70;52.30
68385;DHT22;55336;43.062;25.626;2023-04-24T09:11:03;21.50;53.00
68385;DHT22;55336;43.062;25.626;2023-04-24T09:13:30;21.40;52.60
68385;DHT22;55336;43.062;25.626;2023-04-24T09:15:55;21.50;50.80
68385;DHT22;55336;43.062;25.626;2023-04-24T09:18:22;21.70;55.20
68385;DHT22;55336;43.062;25.626;2023-04-24T09:23:24;22.70;50.50
68385;DHT22;55336;43.062;25.626;2023-04-24T09:25:53;23.80;49.60
68385;DHT22;55336;43.062;25.626;2023-04-24T09:28:19;24.20;49.00
68385;DHT22;55336;43.062;25.626;2023-04-24T09:31:01;25.00;42.40
68385;DHT22;55336;43.062;25.626;2023-04-24T09:33:27;24.20;42.90
68385;DHT22;55336;43.062;25.626;2023-04-24T09:35:52;23.90;43.70
68385;DHT22;55336;43.062;25.626;2023-04-24T09:38:19;23.70;45.30
68385;DHT22;55336;43.062;25.626;2023-04-24T09:40:45;23.50;48.10
68385;DHT22;55336;43.062;25.626;2023-04-24T09:43:11;23.40;45.50
68385;DHT22;55336;43.062;25.626;2023-04-24T09:45:39;23.50;42.50
68385;DHT22;55336;43.062;25.626;2023-04-24T09:48:05;23.60;45.70
68385;DHT22;55336;43.062;25.626;2023-04-24T09:50:34;23.80;42.90
68385;DHT22;55336;43.062;25.626;2023-04-24T09:53:03;25.10;39.20
68385;DHT22;55336;43.062;25.626;2023-04-24T09:55:29;25.20;39.20
68385;DHT22;55336;43.062;25.626;2023-04-24T09:57:56;25.70;37.00
68385;DHT22;55336;43.062;25.626;2023-04-24T10:00:26;25.70;41.10
68385;DHT22;55336;43.062;25.626;2023-04-24T10:03:04;25.30;41.50
68385;DHT22;55336;43.062;25.626;2023-04-24T10:05:31;24.00;41.50
68385;DHT22;55336;43.062;25.626;2023-04-24T10:08:04;24.20;41.70
68385;DHT22;55336;43.062;25.626;2023-04-24T10:10:31;24.30;40.80
68385;DHT22;55336;43.062;25.626;2023-04-24T10:12:57;24.40;39.80
68385;DHT22;55336;43.062;25.626;2023-04-24T10:15:22;24.50;40.10
68385;DHT22;55336;43.062;25.626;2023-04-24T10:17:49;24.50;40.20
68385;DHT22;55336;43.062;25.626;2023-04-24T10:20:19;24.60;39.70
68385;DHT22;55336;43.062;25.626;2023-04-24T10:22:47;25.40;41.30
68385;DHT22;55336;43.062;25.626;2023-04-24T10:25:16;25.00;42.00
68385;DHT22;55336;43.062;25.626;2023-04-24T10:27:42;25.10;40.70
68385;DHT22;55336;43.062;25.626;2023-04-24T10:30:08;25.00;42.60
68385;DHT22;55336;43.062;25.626;2023-04-24T10:32:34;24.90;42.20
68385;DHT22;55336;43.062;25.626;2023-04-24T10:35:00;26.10;40.50
68385;DHT22;55336;43.062;25.626;2023-04-24T10:37:28;26.40;38.80
68385;DHT22;55336;43.062;25.626;2023-04-24T10:39:55;26.60;38.50
68385;DHT22;55336;43.062;25.626;2023-04-24T10:42:21;26.60;35.70
68385;DHT22;55336;43.062;25.626;2023-04-24T10:44:48;27.10;36.30
68385;DHT22;55336;43.062;25.626;2023-04-24T10:47:14;26.70;34.70
68385;DHT22;55336;43.062;25.626;2023-04-24T10:49:40;26.10;38.00
68385;DHT22;55336;43.062;25.626;2023-04-24T10:52:06;26.10;38.80
68385;DHT22;55336;43.062;25.626;2023-04-24T10:59:44;25.30;39.30
68385;DHT22;55336;43.062;25.626;2023-04-24T11:02:11;25.00;38.10
68385;DHT22;55336;43.062;25.626;2023-04-24T11:04:39;24.80;39.20
68385;DHT22;55336;43.062;25.626;2023-04-24T11:07:05;24.60;39.00
68385;DHT22;55336;43.062;25.626;2023-04-24T11:09:31;24.30;38.70
68385;DHT22;55336;43.062;25.626;2023-04-24T11:12:07;24.40;39.30
68385;DHT22;55336;43.062;25.626;2023-04-24T11:17:34;24.40;39.60
68385;DHT22;55336;43.062;25.626;2023-04-24T11:20:11;24.60;39.80
68385;DHT22;55336;43.062;25.626;2023-04-24T11:22:37;25.10;39.20
68385;DHT22;55336;43.062;25.626;2023-04-24T11:25:05;25.70;37.20
68385;DHT22;55336;43.062;25.626;2023-04-24T11:27:42;26.30;37.50
68385;DHT22;55336;43.062;25.626;2023-04-24T11:30:08;26.90;37.10
68385;DHT22;55336;43.062;25.626;2023-04-24T11:35:15;27.10;35.50
68385;DHT22;55336;43.062;25.626;2023-04-24T11:37:42;26.40;37.80
68385;DHT22;55336;43.062;25.626;2023-04-24T11:40:09;26.90;34.80
68385;DHT22;55336;43.062;25.626;2023-04-24T11:42:42;27.30;38.20
68385;DHT22;55336;43.062;25.626;2023-04-24T11:47:35;28.20;33.90
68385;DHT22;55336;43.062;25.626;2023-04-24T11:50:01;27.60;35.00
68385;DHT22;55336;43.062;25.626;2023-04-24T11:52:28;27.90;34.40
68385;DHT22;55336;43.062;25.626;2023-04-24T11:54:54;28.20;31.70
68385;DHT22;55336;43.062;25.626;2023-04-24T11:57:20;28.80;31.70
68385;DHT22;55336;43.062;25.626;2023-04-24T11:59:47;28.60;33.00
68385;DHT22;55336;43.062;25.626;2023-04-24T12:02:22;27.70;33.80
68385;DHT22;55336;43.062;25.626;2023-04-24T12:04:48;27.40;35.30
68385;DHT22;55336;43.062;25.626;2023-04-24T12:07:14;27.00;33.80
68385;DHT22;55336;43.062;25.626;2023-04-24T12:09:44;26.50;35.20
68385;DHT22;55336;43.062;25.626;2023-04-24T12:12:15;26.10;36.50
68385;DHT22;55336;43.062;25.626;2023-04-24T12:14:42;25.70;36.60
68385;DHT22;55336;43.062;25.626;2023-04-24T12:17:07;25.60;38.30
68385;DHT22;55336;43.062;25.626;2023-04-24T12:19:33;25.70;38.10
68385;DHT22;55336;43.062;25.626;2023-04-24T12:22:03;25.80;36.20
68385;DHT22;55336;43.062;25.626;2023-04-24T12:24:30;26.50;35.20
68385;DHT22;55336;43.062;25.626;2023-04-24T12:26:56;27.00;36.00
68385;DHT22;55336;43.062;25.626;2023-04-24T12:29:22;26.90;36.10
68385;DHT22;55336;43.062;25.626;2023-04-24T12:31:48;26.40;35.80
68385;DHT22;55336;43.062;25.626;2023-04-24T12:34:20;27.10;35.00
68385;DHT22;55336;43.062;25.626;2023-04-24T12:36:46;28.10;33.70
68385;DHT22;55336;43.062;25.626;2023-04-24T12:39:16;28.50;33.90
68385;DHT22;55336;43.062;25.626;2023-04-24T12:41:58;27.90;33.20
68385;DHT22;55336;43.062;25.626;2023-04-24T12:44:31;27.50;34.40
68385;DHT22;55336;43.062;25.626;2023-04-24T12:46:57;27.00;32.90
68385;DHT22;55336;43.062;25.626;2023-04-24T12:49:23;26.20;36.60
68385;DHT22;55336;43.062;25.626;2023-04-24T12:51:48;25.20;36.20
68385;DHT22;55336;43.062;25.626;2023-04-24T12:54:14;25.00;38.80
68385;DHT22;55336;43.062;25.626;2023-04-24T12:56:40;24.70;37.80
68385;DHT22;55336;43.062;25.626;2023-04-24T12:59:05;25.60;35.50
68385;DHT22;55336;43.062;25.626;2023-04-24T13:01:31;26.40;35.50
68385;DHT22;55336;43.062;25.626;2023-04-24T13:03:57;26.40;33.70
68385;DHT22;55336;43.062;25.626;2023-04-24T13:06:23;25.60;34.60
68385;DHT22;55336;43.062;25.626;2023-04-24T13:08:48;24.50;36.10
68385;DHT22;55336;43.062;25.626;2023-04-24T13:11:14;24.00;36.30
68385;DHT22;55336;43.062;25.626;2023-04-24T13:13:40;23.80;36.70
68385;DHT22;55336;43.062;25.626;2023-04-24T13:16:06;24.40;36.80
68385;DHT22;55336;43.062;25.626;2023-04-24T13:18:32;25.70;33.80
68385;DHT22;55336;43.062;25.626;2023-04-24T13:20:57;26.20;31.70
68385;DHT22;55336;43.062;25.626;2023-04-24T13:23:23;25.40;34.10
68385;DHT22;55336;43.062;25.626;2023-04-24T13:25:49;24.40;38.50
68385;DHT22;55336;43.062;25.626;2023-04-24T13:28:14;24.40;43.50
68385;DHT22;55336;43.062;25.626;2023-04-24T13:30:40;24.20;42.30
68385;DHT22;55336;43.062;25.626;2023-04-24T13:33:06;24.40;44.80
68385;DHT22;55336;43.062;25.626;2023-04-24T13:35:32;25.30;41.60
68385;DHT22;55336;43.062;25.626;2023-04-24T13:37:58;25.70;40.50
68385;DHT22;55336;43.062;25.626;2023-04-24T13:40:23;25.50;39.90
68385;DHT22;55336;43.062;25.626;2023-04-24T13:42:49;24.70;41.80
68385;DHT22;55336;43.062;25.626;2023-04-24T13:45:15;24.40;43.60
68385;DHT22;55336;43.062;25.626;2023-04-24T13:47:41;24.40;44.40
68385;DHT22;55336;43.062;25.626;2023-04-24T13:50:07;24.00;43.20
68385;DHT22;55336;43.062;25.626;2023-04-24T13:52:33;23.70;44.60
68385;DHT22;55336;43.062;25.626;2023-04-24T13:54:59;23.40;45.00
68385;DHT22;55336;43.062;25.626;2023-04-24T13:57:25;23.40;45.10
68385;DHT22;55336;43.062;25.626;2023-04-24T13:59:52;23.90;43.30
68385;DHT22;55336;43.062;25.626;2023-04-24T14:02:18;23.90;43.30
68385;DHT22;55336;43.062;25.626;2023-04-24T14:04:43;24.10;43.70
68385;DHT22;55336;43.062;25.626;2023-04-24T14:07:09;24.50;42.70
68385;DHT22;55336;43.062;25.626;2023-04-24T14:09:35;24.70;41.30
68385;DHT22;55336;43.062;25.626;2023-04-24T14:12:01;24.30;42.20
68385;DHT22;55336;43.062;25.626;2023-04-24T14:14:29;24.90;41.30
68385;DHT22;55336;43.062;25.626;2023-04-24T14:16:55;25.50;38.60
68385;DHT22;55336;43.062;25.626;2023-04-24T14:19:21;26.00;39.40
68385;DHT22;55336;43.062;25.626;2023-04-24T14:21:49;25.70;39.10
68385;DHT22;55336;43.062;25.626;2023-04-24T14:24:15;25.50;39.50
68385;DHT22;55336;43.062;25.626;2023-04-24T14:26:41;24.80;41.10
68385;DHT22;55336;43.062;25.626;2023-04-24T14:29:07;24.50;41.30
68385;DHT22;55336;43.062;25.626;2023-04-24T14:31:33;24.60;41.20
68385;DHT22;55336;43.062;25.626;2023-04-24T14:33:59;25.00;40.40
68385;DHT22;55336;43.062;25.626;2023-04-24T14:36:25;25.40;39.50
68385;DHT22;55336;43.062;25.626;2023-04-24T14:38:51;25.50;39.60
68385;DHT22;55336;43.062;25.626;2023-04-24T14:41:17;25.30;40.90
68385;DHT22;55336;43.062;25.626;2023-04-24T14:43:43;24.80;42.10
68385;DHT22;55336;43.062;25.626;2023-04-24T14:46:08;24.50;43.40
68385;DHT22;55336;43.062;25.626;2023-04-24T14:48:34;24.00;43.30
68385;DHT22;55336;43.062;25.626;2023-04-24T14:51:00;23.80;44.50
68385;DHT22;55336;43.062;25.626;2023-04-24T14:53:26;23.50;45.40
68385;DHT22;55336;43.062;25.626;2023-04-24T14:55:52;23.40;45.40
68385;DHT22;55336;43.062;25.626;2023-04-24T14:58:18;22.90;48.50
68385;DHT22;55336;43.062;25.626;2023-04-24T15:00:43;23.00;47.80
68385;DHT22;55336;43.062;25.626;2023-04-24T15:03:09;23.00;47.70
68385;DHT22;55336;43.062;25.626;2023-04-24T15:05:35;23.00;48.00
68385;DHT22;55336;43.062;25.626;2023-04-24T15:08:01;22.70;47.70
68385;DHT22;55336;43.062;25.626;2023-04-24T15:10:27;22.40;49.30
68385;DHT22;55336;43.062;25.626;2023-04-24T15:12:54;22.30;49.60
68385;DHT22;55336;43.062;25.626;2023-04-24T15:15:20;22.00;49.80
68385;DHT22;55336;43.062;25.626;2023-04-24T15:17:46;21.80;50.50
68385;DHT22;55336;43.062;25.626;2023-04-24T15:20:11;21.40;51.20
68385;DHT22;55336;43.062;25.626;2023-04-24T15:22:37;21.10;52.10
68385;DHT22;55336;43.062;25.626;2023-04-24T15:25:03;21.00;52.80
68385;DHT22;55336;43.062;25.626;2023-04-24T15:27:38;20.80;53.80
68385;DHT22;55336;43.062;25.626;2023-04-24T15:30:04;20.70;54.20